createdAt,value
2022-12-11T00:00:02.917Z,0.25
2022-12-11T00:01:02.955Z,0.24
2022-12-11T00:02:02.764Z,0.27
2022-12-11T00:03:02.925Z,0.25
2022-12-11T00:04:02.712Z,0.25
2022-12-11T00:05:03.027Z,0.25
2022-12-11T00:06:02.756Z,0.24
2022-12-11T00:07:02.780Z,0.23
2022-12-11T00:08:03.099Z,0.23
2022-12-11T00:09:02.665Z,0.24
2022-12-11T00:10:02.757Z,0.24
2022-12-11T00:11:02.583Z,0.24
2022-12-11T00:12:02.765Z,0.25
2022-12-11T00:13:02.658Z,0.27
2022-12-11T00:14:02.621Z,0.27
2022-12-11T00:15:02.571Z,0.25
2022-12-11T00:16:02.580Z,0.25
2022-12-11T00:17:02.787Z,0.27
2022-12-11T00:18:02.590Z,0.28
2022-12-11T00:19:02.570Z,0.28
2022-12-11T00:20:02.497Z,0.28
2022-12-11T00:21:02.514Z,0.30
2022-12-11T00:22:02.542Z,0.30
2022-12-11T00:23:02.523Z,0.30
2022-12-11T00:24:02.515Z,0.30
2022-12-11T00:25:02.494Z,0.33
2022-12-11T00:26:02.536Z,0.31
2022-12-11T00:27:02.642Z,0.33
2022-12-11T00:28:02.494Z,0.33
2022-12-11T00:29:02.471Z,0.33
2022-12-11T00:30:02.433Z,0.34
2022-12-11T00:31:02.445Z,0.34
2022-12-11T00:32:02.610Z,0.33
2022-12-11T00:33:02.702Z,0.31
2022-12-11T00:34:02.354Z,0.33
2022-12-11T00:35:02.405Z,0.31
2022-12-11T00:36:02.519Z,0.33
2022-12-11T00:37:02.643Z,0.33
2022-12-11T00:38:02.487Z,0.34
2022-12-11T00:39:02.355Z,0.33
2022-12-11T00:40:02.325Z,0.34
2022-12-11T00:41:02.309Z,0.34
2022-12-11T00:42:02.363Z,0.36
2022-12-11T00:43:02.337Z,0.34
2022-12-11T00:44:02.414Z,0.33
2022-12-11T00:45:02.305Z,0.33
2022-12-11T00:46:02.541Z,0.31
2022-12-11T00:47:02.566Z,0.34
2022-12-11T00:48:02.459Z,0.34
2022-12-11T00:49:02.329Z,0.34
2022-12-11T00:50:02.251Z,0.34
2022-12-11T00:51:02.204Z,0.34
2022-12-11T00:52:02.383Z,0.33
2022-12-11T00:53:02.263Z,0.34
2022-12-11T00:54:02.286Z,0.33
2022-12-11T00:55:02.203Z,0.34
2022-12-11T00:56:02.398Z,0.34
2022-12-11T00:57:02.204Z,0.34
2022-12-11T00:58:02.194Z,0.34
2022-12-11T00:59:02.292Z,0.36
2022-12-11T01:00:02.233Z,0.36
2022-12-11T01:01:02.344Z,0.38
2022-12-11T01:02:02.488Z,0.38
2022-12-11T01:03:02.267Z,0.39
2022-12-11T01:04:02.246Z,0.41
2022-12-11T01:05:02.113Z,0.41
2022-12-11T01:06:02.108Z,0.41
2022-12-11T01:07:02.175Z,0.43
2022-12-11T01:08:02.540Z,0.42
2022-12-11T01:09:02.225Z,0.41
2022-12-11T01:10:02.251Z,0.41
2022-12-11T01:11:02.037Z,0.39
2022-12-11T01:12:02.006Z,0.39
2022-12-11T01:13:02.069Z,0.39
2022-12-11T01:14:02.085Z,0.38
2022-12-11T01:15:02.073Z,0.41
2022-12-11T01:16:02.279Z,0.41
2022-12-11T01:17:02.017Z,0.42
2022-12-11T01:18:01.946Z,0.41
2022-12-11T01:19:01.982Z,0.42
2022-12-11T01:20:01.954Z,0.41
2022-12-11T01:21:01.915Z,0.41
2022-12-11T01:22:01.940Z,0.41
2022-12-11T01:23:01.916Z,0.39
2022-12-11T01:24:01.912Z,0.41
2022-12-11T01:25:01.945Z,0.39
2022-12-11T01:26:01.899Z,0.42
2022-12-11T01:27:01.898Z,0.41
2022-12-11T01:28:01.902Z,0.42
2022-12-11T01:29:01.846Z,0.42
2022-12-11T01:30:01.868Z,0.39
2022-12-11T01:31:02.193Z,0.39
2022-12-11T01:32:01.981Z,0.41
2022-12-11T01:33:01.900Z,0.41
2022-12-11T01:34:01.822Z,0.41
2022-12-11T01:35:01.827Z,0.41
2022-12-11T01:36:01.794Z,0.39
2022-12-11T01:37:02.011Z,0.41
2022-12-11T01:38:01.829Z,0.41
2022-12-11T01:39:01.942Z,0.41
2022-12-11T01:40:01.819Z,0.41
2022-12-11T01:41:01.780Z,0.41
2022-12-11T01:42:01.732Z,0.41
2022-12-11T01:43:01.823Z,0.41
2022-12-11T01:44:01.719Z,0.41
2022-12-11T01:45:01.805Z,0.41
2022-12-11T01:46:01.823Z,0.41
2022-12-11T01:47:01.784Z,0.42
2022-12-11T01:48:01.723Z,0.39
2022-12-11T01:49:01.759Z,0.42
2022-12-11T01:50:01.736Z,0.42
2022-12-11T01:51:01.925Z,0.42
2022-12-11T01:52:01.680Z,0.41
2022-12-11T01:53:01.653Z,0.41
2022-12-11T01:54:01.731Z,0.43
2022-12-11T01:55:01.898Z,0.42
2022-12-11T01:56:01.831Z,0.42
2022-12-11T01:57:01.643Z,0.41
2022-12-11T01:58:02.113Z,0.42
2022-12-11T01:59:01.719Z,0.42
2022-12-11T02:00:01.572Z,0.41
2022-12-11T02:01:01.727Z,0.41
2022-12-11T02:02:01.745Z,0.41
2022-12-11T02:03:01.723Z,0.39
2022-12-11T02:04:01.711Z,0.39
2022-12-11T02:05:01.537Z,0.39
2022-12-11T02:06:01.505Z,0.38
2022-12-11T02:07:01.651Z,0.38
2022-12-11T02:08:01.885Z,0.36
2022-12-11T02:09:01.681Z,0.36
2022-12-11T02:10:01.539Z,0.34
2022-12-11T02:11:01.607Z,0.36
2022-12-11T02:12:01.581Z,0.36
2022-12-11T02:13:01.636Z,0.36
2022-12-11T02:14:01.613Z,0.34
2022-12-11T02:15:01.480Z,0.38
2022-12-11T02:16:01.603Z,0.36
2022-12-11T02:17:01.598Z,0.33
2022-12-11T02:18:01.507Z,0.33
2022-12-11T02:19:01.938Z,0.31
2022-12-11T02:20:01.373Z,0.31
2022-12-11T02:21:01.360Z,0.31
2022-12-11T02:22:01.498Z,0.33
2022-12-11T02:23:01.360Z,0.33
2022-12-11T02:24:01.344Z,0.31
2022-12-11T02:25:01.588Z,0.28
2022-12-11T02:26:01.456Z,0.28
2022-12-11T02:27:01.792Z,0.30
2022-12-11T02:28:01.292Z,0.28
2022-12-11T02:29:01.278Z,0.30
2022-12-11T02:30:01.512Z,0.31
2022-12-11T02:31:01.397Z,0.34
2022-12-11T02:32:01.594Z,0.36
2022-12-11T02:33:01.468Z,0.38
2022-12-11T02:34:01.270Z,0.38
2022-12-11T02:35:01.338Z,0.38
2022-12-11T02:36:01.210Z,0.39
2022-12-11T02:37:01.249Z,0.39
2022-12-11T02:38:01.339Z,0.39
2022-12-11T02:39:01.238Z,0.39
2022-12-11T02:40:01.300Z,0.38
2022-12-11T02:41:01.182Z,0.36
2022-12-11T02:42:01.334Z,0.34
2022-12-11T02:43:01.219Z,0.36
2022-12-11T02:44:01.149Z,0.34
2022-12-11T02:45:01.326Z,0.36
2022-12-11T02:46:01.196Z,0.34
2022-12-11T02:47:01.150Z,0.36
2022-12-11T02:48:01.091Z,0.34
2022-12-11T02:49:01.687Z,0.36
2022-12-11T02:50:01.149Z,0.34
2022-12-11T02:51:01.063Z,0.33
2022-12-11T02:52:01.055Z,0.33
2022-12-11T02:53:01.152Z,0.33
2022-12-11T02:54:01.132Z,0.31
2022-12-11T02:55:01.431Z,0.33
2022-12-11T02:56:00.999Z,0.34
2022-12-11T02:57:01.015Z,0.38
2022-12-11T02:58:01.224Z,0.36
2022-12-11T02:59:00.997Z,0.38
2022-12-11T03:00:01.016Z,0.38
2022-12-11T03:01:01.118Z,0.39
2022-12-11T03:02:01.202Z,0.41
2022-12-11T03:03:01.087Z,0.42
2022-12-11T03:04:01.153Z,0.41
2022-12-11T03:05:00.952Z,0.42
2022-12-11T03:06:01.036Z,0.42
2022-12-11T03:07:01.366Z,0.42
2022-12-11T03:08:01.112Z,0.42
2022-12-11T03:09:00.919Z,0.43
2022-12-11T03:10:00.963Z,0.43
2022-12-11T03:11:01.138Z,0.43
2022-12-11T03:12:00.999Z,0.42
2022-12-11T03:13:00.929Z,0.42
2022-12-11T03:14:00.957Z,0.42
2022-12-11T03:15:00.871Z,0.41
2022-12-11T03:16:00.976Z,0.41
2022-12-11T03:17:01.040Z,0.39
2022-12-11T03:18:00.992Z,0.39
2022-12-11T03:19:00.852Z,0.42
2022-12-11T03:20:00.918Z,0.41
2022-12-11T03:21:00.852Z,0.41
2022-12-11T03:22:00.840Z,0.41
2022-12-11T03:23:00.876Z,0.39
2022-12-11T03:24:00.934Z,0.38
2022-12-11T03:25:00.944Z,0.39
2022-12-11T03:26:00.764Z,0.39
2022-12-11T03:27:01.094Z,0.42
2022-12-11T03:28:00.915Z,0.42
2022-12-11T03:29:00.727Z,0.43
2022-12-11T03:30:00.750Z,0.45
2022-12-11T03:31:00.817Z,0.45
2022-12-11T03:32:00.674Z,0.46
2022-12-11T03:33:00.673Z,0.45
2022-12-11T03:34:00.717Z,0.46
2022-12-11T03:35:00.646Z,0.46
2022-12-11T03:36:00.838Z,0.49
2022-12-11T03:37:00.912Z,0.48
2022-12-11T03:38:00.750Z,0.46
2022-12-11T03:39:00.654Z,0.48
2022-12-11T03:40:00.764Z,0.46
2022-12-11T03:41:00.653Z,0.46
2022-12-11T03:42:00.816Z,0.46
2022-12-11T03:43:00.628Z,0.45
2022-12-11T03:44:00.554Z,0.43
2022-12-11T03:45:00.604Z,0.45
2022-12-11T03:46:00.889Z,0.46
2022-12-11T03:47:00.561Z,0.48
2022-12-11T03:48:00.559Z,0.46
2022-12-11T03:49:00.598Z,0.46
2022-12-11T03:50:00.510Z,0.45
2022-12-11T03:51:00.592Z,0.46
2022-12-11T03:52:00.488Z,0.45
2022-12-11T03:53:00.555Z,0.45
2022-12-11T03:54:00.716Z,0.43
2022-12-11T03:55:00.682Z,0.43
2022-12-11T03:56:00.468Z,0.45
2022-12-11T03:57:00.654Z,0.43
2022-12-11T03:58:00.472Z,0.45
2022-12-11T03:59:00.425Z,0.45
2022-12-11T04:00:00.415Z,0.45
2022-12-11T04:01:00.482Z,0.45
2022-12-11T04:02:00.504Z,0.45
2022-12-11T04:03:00.561Z,0.43
2022-12-11T04:04:00.459Z,0.46
2022-12-11T04:05:00.458Z,0.46
2022-12-11T04:06:00.371Z,0.48
2022-12-11T04:07:00.378Z,0.46
2022-12-11T04:08:00.388Z,0.48
2022-12-11T04:09:00.360Z,0.49
2022-12-11T04:10:00.370Z,0.49
2022-12-11T04:11:00.351Z,0.48
2022-12-11T04:12:00.302Z,0.51
2022-12-11T04:13:00.357Z,0.52
2022-12-11T04:14:00.325Z,0.52
2022-12-11T04:15:00.262Z,0.51
2022-12-11T04:16:00.301Z,0.52
2022-12-11T04:17:00.285Z,0.52
2022-12-11T04:18:00.280Z,0.52
2022-12-11T04:19:00.425Z,0.51
2022-12-11T04:20:00.358Z,0.51
2022-12-11T04:21:00.402Z,0.52
2022-12-11T04:22:00.440Z,0.52
2022-12-11T04:23:00.415Z,0.51
2022-12-11T04:24:00.219Z,0.52
2022-12-11T04:25:00.230Z,0.52
2022-12-11T04:26:00.187Z,0.52
2022-12-11T04:27:00.153Z,0.53
2022-12-11T04:28:00.141Z,0.53
2022-12-11T04:29:00.466Z,0.53
2022-12-11T04:30:00.146Z,0.57
2022-12-11T04:31:00.205Z,0.57
2022-12-11T04:32:00.124Z,0.53
2022-12-11T04:33:00.310Z,0.57
2022-12-11T04:34:00.247Z,0.58
2022-12-11T04:35:00.115Z,0.58
2022-12-11T04:36:00.222Z,0.58
2022-12-11T04:37:00.534Z,0.57
2022-12-11T04:38:00.174Z,0.57
2022-12-11T04:39:00.452Z,0.58
2022-12-11T04:40:00.194Z,0.58
2022-12-11T04:41:00.202Z,0.58
2022-12-11T04:42:00.211Z,0.57
2022-12-11T04:43:00.055Z,0.57
2022-12-11T04:43:59.999Z,0.58
2022-12-11T04:44:59.977Z,0.53
2022-12-11T04:46:00.217Z,0.58
2022-12-11T04:46:59.992Z,0.57
2022-12-11T04:47:59.982Z,0.60
2022-12-11T04:48:59.962Z,0.53
2022-12-11T04:49:59.959Z,0.58
2022-12-11T04:50:59.951Z,0.58
2022-12-11T04:51:59.929Z,0.57
2022-12-11T04:53:00.098Z,0.58
2022-12-11T04:54:00.001Z,0.57
2022-12-11T04:54:59.940Z,0.61
2022-12-11T04:55:59.913Z,0.60
2022-12-11T04:56:59.962Z,0.62
2022-12-11T04:58:00.083Z,0.61
2022-12-11T04:58:59.989Z,0.62
2022-12-11T04:59:59.917Z,0.62
2022-12-11T05:00:59.889Z,0.61
2022-12-11T05:02:00.107Z,0.62
2022-12-11T05:03:00.068Z,0.62
2022-12-11T05:04:00.043Z,0.62
2022-12-11T05:04:59.848Z,0.61
2022-12-11T05:05:59.762Z,0.61
2022-12-11T05:07:00.091Z,0.62
2022-12-11T05:07:59.827Z,0.62
2022-12-11T05:09:00.048Z,0.62
2022-12-11T05:09:59.717Z,0.61
2022-12-11T05:10:59.774Z,0.62
2022-12-11T05:11:59.931Z,0.62
2022-12-11T05:12:59.874Z,0.64
2022-12-11T05:13:59.751Z,0.62
2022-12-11T05:14:59.798Z,0.62
2022-12-11T05:16:00.013Z,0.62
2022-12-11T05:16:59.724Z,0.64
2022-12-11T05:18:00.101Z,0.65
2022-12-11T05:18:59.818Z,0.65
2022-12-11T05:19:59.848Z,0.62
2022-12-11T05:20:59.656Z,0.65
2022-12-11T05:21:59.675Z,0.64
2022-12-11T05:22:59.615Z,0.65
2022-12-11T05:23:59.755Z,0.62
2022-12-11T05:24:59.658Z,0.64
2022-12-11T05:25:59.803Z,0.62
2022-12-11T05:26:59.970Z,0.62
2022-12-11T05:27:59.761Z,0.62
2022-12-11T05:28:59.540Z,0.61
2022-12-11T05:29:59.866Z,0.62
2022-12-11T05:30:59.715Z,0.62
2022-12-11T05:31:59.565Z,0.60
2022-12-11T05:32:59.874Z,0.61
2022-12-11T05:33:59.678Z,0.61
2022-12-11T05:34:59.512Z,0.62
2022-12-11T05:35:59.678Z,0.62
2022-12-11T05:36:59.980Z,0.65
2022-12-11T05:37:59.658Z,0.64
2022-12-11T05:38:59.803Z,0.62
2022-12-11T05:39:59.518Z,0.62
2022-12-11T05:40:59.573Z,0.62
2022-12-11T05:41:59.531Z,0.61
2022-12-11T05:42:59.794Z,0.64
2022-12-11T05:43:59.417Z,0.64
2022-12-11T05:44:59.428Z,0.62
2022-12-11T05:45:59.398Z,0.64
2022-12-11T05:46:59.456Z,0.62
2022-12-11T05:47:59.579Z,0.61
2022-12-11T05:48:59.436Z,0.62
2022-12-11T05:49:59.386Z,0.62
2022-12-11T05:50:59.615Z,0.62
2022-12-11T05:51:59.473Z,0.61
2022-12-11T05:52:59.324Z,0.64
2022-12-11T05:53:59.589Z,0.64
2022-12-11T05:54:59.343Z,0.62
2022-12-11T05:55:59.273Z,0.65
2022-12-11T05:56:59.261Z,0.65
2022-12-11T05:57:59.262Z,0.65
2022-12-11T05:58:59.240Z,0.64
2022-12-11T05:59:59.235Z,0.65
2022-12-11T06:00:59.298Z,0.67
2022-12-11T06:01:59.375Z,0.67
2022-12-11T06:02:59.459Z,0.65
2022-12-11T06:03:59.349Z,0.64
2022-12-11T06:04:59.258Z,0.64
2022-12-11T06:05:59.339Z,0.65
2022-12-11T06:06:59.248Z,0.64
2022-12-11T06:07:59.307Z,0.64
2022-12-11T06:08:59.495Z,0.65
2022-12-11T06:09:59.158Z,0.62
2022-12-11T06:10:59.173Z,0.65
2022-12-11T06:11:59.364Z,0.64
2022-12-11T06:12:59.159Z,0.65
2022-12-11T06:13:59.118Z,0.65
2022-12-11T06:14:59.132Z,0.67
2022-12-11T06:15:59.200Z,0.65
2022-12-11T06:16:59.123Z,0.64
2022-12-11T06:17:59.154Z,0.64
2022-12-11T06:18:59.146Z,0.65
2022-12-11T06:19:59.067Z,0.64
2022-12-11T06:20:59.139Z,0.67
2022-12-11T06:21:59.076Z,0.67
2022-12-11T06:22:59.089Z,0.65
2022-12-11T06:23:59.025Z,0.67
2022-12-11T06:24:59.059Z,0.68
2022-12-11T06:25:59.029Z,0.67
2022-12-11T06:26:59.440Z,0.67
2022-12-11T06:27:58.993Z,0.67
2022-12-11T06:28:59.248Z,0.65
2022-12-11T06:29:59.014Z,0.64
2022-12-11T06:30:59.191Z,0.62
2022-12-11T06:31:59.121Z,0.64
2022-12-11T06:32:59.495Z,0.64
2022-12-11T06:33:58.981Z,0.65
2022-12-11T06:34:59.108Z,0.64
2022-12-11T06:35:59.087Z,0.62
2022-12-11T06:36:59.007Z,0.64
2022-12-11T06:37:58.922Z,0.64
2022-12-11T06:38:59.110Z,0.64
2022-12-11T06:39:58.889Z,0.64
2022-12-11T06:40:59.061Z,0.64
2022-12-11T06:41:59.850Z,0.65
2022-12-11T06:42:58.934Z,0.65
2022-12-11T06:43:58.882Z,0.65
2022-12-11T06:44:58.865Z,0.67
2022-12-11T06:46:03.600Z,0.67
2022-12-11T06:46:58.816Z,0.64
2022-12-11T06:47:58.848Z,0.64
2022-12-11T06:48:58.849Z,0.64
2022-12-11T06:49:58.807Z,0.65
2022-12-11T06:50:58.899Z,0.67
2022-12-11T06:51:58.764Z,0.65
2022-12-11T06:52:58.899Z,0.67
2022-12-11T06:53:58.784Z,0.68
2022-12-11T06:54:58.797Z,0.65
2022-12-11T06:55:58.740Z,0.65
2022-12-11T06:56:58.799Z,0.67
2022-12-11T06:57:58.740Z,0.65
2022-12-11T06:59:02.871Z,0.67
2022-12-11T06:59:59.086Z,0.67
2022-12-11T07:00:58.754Z,0.67
2022-12-11T07:01:58.723Z,0.68
2022-12-11T07:02:58.655Z,0.68
2022-12-11T07:03:58.623Z,0.68
2022-12-11T07:04:58.638Z,0.67
2022-12-11T07:05:58.650Z,0.68
2022-12-11T07:06:58.837Z,0.68
2022-12-11T07:07:58.808Z,0.68
2022-12-11T07:08:58.609Z,0.68
2022-12-11T07:10:05.777Z,0.68
2022-12-11T07:10:58.786Z,0.70
2022-12-11T07:11:58.978Z,0.70
2022-12-11T07:12:58.623Z,0.70
2022-12-11T07:13:58.563Z,0.70
2022-12-11T07:14:58.541Z,0.70
2022-12-11T07:15:58.955Z,0.68
2022-12-11T07:16:58.729Z,0.71
2022-12-11T07:17:58.568Z,0.71
2022-12-11T07:18:58.693Z,0.70
2022-12-11T07:19:58.626Z,0.70
2022-12-11T07:20:58.856Z,0.70
2022-12-11T07:21:58.665Z,0.70
2022-12-11T07:22:58.534Z,0.71
2022-12-11T07:23:58.469Z,0.71
2022-12-11T07:24:58.488Z,0.71
2022-12-11T07:25:58.626Z,0.72
2022-12-11T07:26:58.435Z,0.71
2022-12-11T07:27:58.408Z,0.72
2022-12-11T07:28:58.523Z,0.71
2022-12-11T07:29:58.625Z,0.71
2022-12-11T07:30:58.587Z,0.72
2022-12-11T07:31:58.725Z,0.72
2022-12-11T07:32:58.827Z,0.71
2022-12-11T07:33:58.380Z,0.72
2022-12-11T07:34:58.341Z,0.72
2022-12-11T07:35:58.494Z,0.71
2022-12-11T07:36:58.574Z,0.72
2022-12-11T07:37:58.873Z,0.75
2022-12-11T07:38:58.299Z,0.71
2022-12-11T07:39:58.576Z,0.75
2022-12-11T07:40:58.317Z,0.72
2022-12-11T07:41:58.455Z,0.76
2022-12-11T07:42:58.519Z,0.75
2022-12-11T07:43:58.273Z,0.76
2022-12-11T07:44:58.267Z,0.75
2022-12-11T07:45:58.532Z,0.72
2022-12-11T07:46:58.459Z,0.71
2022-12-11T07:47:58.225Z,0.71
2022-12-11T07:48:58.260Z,0.68
2022-12-11T07:49:58.228Z,0.70
2022-12-11T07:50:58.169Z,0.70
2022-12-11T07:51:58.172Z,0.70
2022-12-11T07:52:58.182Z,0.70
2022-12-11T07:53:58.175Z,0.68
2022-12-11T07:54:58.216Z,0.70
2022-12-11T07:55:58.445Z,0.67
2022-12-11T07:56:58.228Z,0.67
2022-12-11T07:57:58.344Z,0.65
2022-12-11T07:58:58.222Z,0.70
2022-12-11T07:59:58.140Z,0.67
2022-12-11T08:00:58.481Z,0.67
2022-12-11T08:01:58.152Z,0.70
2022-12-11T08:02:58.221Z,0.70
2022-12-11T08:03:58.068Z,0.68
2022-12-11T08:04:58.257Z,0.71
2022-12-11T08:05:58.018Z,0.71
2022-12-11T08:06:58.102Z,0.68
2022-12-11T08:07:58.347Z,0.68
2022-12-11T08:08:58.212Z,0.68
2022-12-11T08:09:58.231Z,0.68
2022-12-11T08:10:58.018Z,0.68
2022-12-11T08:11:57.997Z,0.70
2022-12-11T08:12:58.050Z,0.67
2022-12-11T08:13:58.125Z,0.67
2022-12-11T08:14:58.154Z,0.68
2022-12-11T08:15:57.984Z,0.67
2022-12-11T08:16:58.049Z,0.68
2022-12-11T08:17:57.938Z,0.68
2022-12-11T08:18:57.947Z,0.68
2022-12-11T08:19:57.928Z,0.68
2022-12-11T08:20:57.900Z,0.67
2022-12-11T08:21:57.924Z,0.67
2022-12-11T08:22:59.356Z,0.67
2022-12-11T08:23:57.979Z,0.70
2022-12-11T08:24:57.889Z,0.70
2022-12-11T08:25:57.957Z,0.70
2022-12-11T08:26:57.834Z,0.70
2022-12-11T08:27:58.147Z,0.68
2022-12-11T08:28:57.817Z,0.68
2022-12-11T08:29:58.003Z,0.70
2022-12-11T08:30:58.118Z,0.68
2022-12-11T08:31:58.088Z,0.68
2022-12-11T08:32:58.154Z,0.70
2022-12-11T08:33:57.817Z,0.71
2022-12-11T08:34:57.857Z,0.72
2022-12-11T08:35:57.730Z,0.72
2022-12-11T08:36:58.288Z,0.72
2022-12-11T08:37:58.060Z,0.72
2022-12-11T08:38:57.897Z,0.72
2022-12-11T08:39:57.762Z,0.72
2022-12-11T08:40:58.083Z,0.72
2022-12-11T08:41:58.048Z,0.72
2022-12-11T08:42:58.231Z,0.72
2022-12-11T08:43:57.960Z,0.72
2022-12-11T08:44:57.950Z,0.72
2022-12-11T08:45:57.727Z,0.75
2022-12-11T08:46:57.865Z,0.75
2022-12-11T08:47:57.859Z,0.76
2022-12-11T08:48:57.688Z,0.78
2022-12-11T08:49:57.669Z,0.78
2022-12-11T08:50:57.619Z,0.78
2022-12-11T08:51:57.595Z,0.76
2022-12-11T08:52:57.608Z,0.79
2022-12-11T08:53:57.795Z,0.79
2022-12-11T08:54:57.844Z,0.80
2022-12-11T08:55:57.755Z,0.79
2022-12-11T08:56:58.295Z,0.79
2022-12-11T08:57:57.671Z,0.79
2022-12-11T08:58:57.548Z,0.79
2022-12-11T08:59:57.562Z,0.82
2022-12-11T09:00:57.821Z,0.80
2022-12-11T09:01:57.755Z,0.80
2022-12-11T09:02:57.772Z,0.82
2022-12-11T09:03:57.501Z,0.82
2022-12-11T09:04:57.465Z,0.80
2022-12-11T09:05:57.565Z,0.79
2022-12-11T09:06:57.735Z,0.79
2022-12-11T09:07:57.467Z,0.78
2022-12-11T09:08:57.541Z,0.80
2022-12-11T09:09:57.629Z,0.82
2022-12-11T09:10:57.588Z,0.83
2022-12-11T09:11:57.542Z,0.82
2022-12-11T09:12:57.441Z,0.82
2022-12-11T09:13:58.912Z,0.83
2022-12-11T09:14:57.402Z,0.82
2022-12-11T09:15:57.524Z,0.82
2022-12-11T09:16:57.425Z,0.83
2022-12-11T09:17:57.547Z,0.83
2022-12-11T09:18:57.562Z,0.85
2022-12-11T09:19:57.554Z,0.85
2022-12-11T09:20:57.319Z,0.88
2022-12-11T09:21:57.555Z,0.86
2022-12-11T09:22:57.321Z,0.86
2022-12-11T09:23:57.325Z,0.88
2022-12-11T09:24:57.413Z,0.88
2022-12-11T09:25:57.370Z,0.88
2022-12-11T09:26:57.455Z,0.88
2022-12-11T09:27:57.496Z,0.89
2022-12-11T09:28:57.322Z,0.89
2022-12-11T09:29:57.278Z,0.89
2022-12-11T09:30:57.505Z,0.90
2022-12-11T09:31:57.240Z,0.90
2022-12-11T09:32:57.236Z,0.90
2022-12-11T09:33:57.300Z,0.92
2022-12-11T09:34:57.195Z,0.92
2022-12-11T09:35:57.202Z,0.92
2022-12-11T09:36:57.190Z,0.92
2022-12-11T09:37:57.199Z,0.92
2022-12-11T09:38:57.227Z,0.92
2022-12-11T09:40:00.201Z,0.94
2022-12-11T09:40:57.155Z,0.94
2022-12-11T09:41:57.429Z,0.94
2022-12-11T09:42:57.190Z,0.97
2022-12-11T09:43:57.251Z,0.97
2022-12-11T09:44:57.272Z,0.98
2022-12-11T09:45:57.141Z,0.98
2022-12-11T09:46:57.214Z,0.98
2022-12-11T09:47:57.229Z,1.00
2022-12-11T09:48:57.226Z,1.00
2022-12-11T09:49:57.176Z,1.00
2022-12-11T09:50:57.059Z,1.00
2022-12-11T09:51:57.118Z,1.03
2022-12-11T09:52:57.162Z,1.01
2022-12-11T09:53:57.038Z,1.01
2022-12-11T09:54:57.072Z,1.01
2022-12-11T09:55:56.994Z,1.03
2022-12-11T09:56:56.993Z,1.01
2022-12-11T09:57:56.982Z,1.01
2022-12-11T09:58:56.954Z,1.01
2022-12-11T10:00:02.694Z,1.03
2022-12-11T10:00:57.006Z,1.03
2022-12-11T10:01:57.010Z,1.01
2022-12-11T10:02:56.986Z,1.03
2022-12-11T10:03:56.920Z,1.03
2022-12-11T10:04:56.999Z,1.00
2022-12-11T10:06:02.674Z,0.98
2022-12-11T10:06:57.033Z,0.98
2022-12-11T10:07:56.924Z,0.98
2022-12-11T10:08:56.903Z,1.01
2022-12-11T10:09:56.969Z,1.03
2022-12-11T10:10:57.240Z,1.04
2022-12-11T10:11:57.175Z,1.04
2022-12-11T10:12:56.902Z,1.06
2022-12-11T10:13:56.860Z,1.10
2022-12-11T10:14:56.863Z,1.10
2022-12-11T10:15:57.121Z,1.14
2022-12-11T10:16:56.794Z,1.14
2022-12-11T10:18:02.948Z,1.14
2022-12-11T10:18:56.921Z,1.14
2022-12-11T10:19:56.871Z,1.14
2022-12-11T10:20:56.764Z,1.14
2022-12-11T10:21:56.738Z,1.10
2022-12-11T10:22:56.718Z,1.08
2022-12-11T10:23:56.740Z,1.08
2022-12-11T10:25:12.768Z,1.07
2022-12-11T10:25:56.756Z,1.07
2022-12-11T10:26:56.710Z,1.06
2022-12-11T10:27:56.754Z,1.04
2022-12-11T10:28:56.821Z,1.03
2022-12-11T10:29:56.702Z,1.04
2022-12-11T10:30:56.765Z,1.04
2022-12-11T10:31:56.848Z,1.03
2022-12-11T10:32:56.710Z,1.06
2022-12-11T10:33:56.792Z,1.04
2022-12-11T10:34:56.835Z,1.06
2022-12-11T10:35:56.780Z,1.07
2022-12-11T10:37:00.415Z,1.06
2022-12-11T10:37:56.568Z,1.04
2022-12-11T10:38:56.588Z,1.07
2022-12-11T10:39:56.596Z,1.07
2022-12-11T10:40:56.562Z,1.08
2022-12-11T10:41:56.603Z,1.07
2022-12-11T10:42:56.672Z,1.07
2022-12-11T10:43:56.545Z,1.07
2022-12-11T10:44:56.520Z,1.08
2022-12-11T10:45:56.584Z,1.07
2022-12-11T10:46:56.822Z,1.07
2022-12-11T10:47:56.542Z,1.08
2022-12-11T10:48:56.542Z,1.06
2022-12-11T10:49:56.719Z,1.08
2022-12-11T10:50:56.479Z,1.08
2022-12-11T10:51:56.535Z,1.07
2022-12-11T10:52:56.457Z,1.04
2022-12-11T10:53:56.876Z,1.06
2022-12-11T10:54:56.533Z,1.07
2022-12-11T10:55:56.675Z,1.08
2022-12-11T10:56:56.663Z,1.12
2022-12-11T10:57:56.468Z,1.14
2022-12-11T10:58:56.406Z,1.15
2022-12-11T10:59:56.541Z,1.16
2022-12-11T11:00:56.477Z,1.19
2022-12-11T11:01:56.610Z,1.22
2022-12-11T11:02:56.623Z,1.24
2022-12-11T11:03:56.349Z,1.21
2022-12-11T11:04:56.344Z,1.19
2022-12-11T11:05:56.479Z,1.19
2022-12-11T11:06:56.411Z,1.18
2022-12-11T11:09:23.805Z,1.19
2022-12-11T11:09:28.863Z,1.16
2022-12-11T11:10:28.696Z,1.16
2022-12-11T11:11:28.806Z,1.16
2022-12-11T11:12:28.804Z,1.18
2022-12-11T11:13:28.953Z,1.18
2022-12-11T11:14:28.688Z,1.18
2022-12-11T11:15:28.802Z,1.19
2022-12-11T11:16:28.759Z,1.21
2022-12-11T11:17:33.813Z,1.19
2022-12-11T11:18:28.705Z,1.19
2022-12-11T11:19:28.769Z,1.18
2022-12-11T11:20:28.696Z,1.19
2022-12-11T11:21:28.751Z,1.16
2022-12-11T11:22:28.562Z,1.16
2022-12-11T11:23:28.622Z,1.12
2022-12-11T11:24:28.638Z,1.12
2022-12-11T11:25:28.756Z,1.12
2022-12-11T11:26:56.263Z,1.10
2022-12-11T11:27:28.731Z,1.12
2022-12-11T11:28:28.704Z,1.16
2022-12-11T11:29:28.626Z,1.19
2022-12-11T11:30:28.795Z,1.21
2022-12-11T11:31:28.592Z,1.21
2022-12-11T11:32:28.497Z,1.18
2022-12-11T11:33:28.649Z,1.16
2022-12-11T11:34:28.468Z,1.18
2022-12-11T11:35:28.483Z,1.16
2022-12-11T11:36:28.515Z,1.16
2022-12-11T11:37:28.473Z,1.15
2022-12-11T11:38:28.622Z,1.19
2022-12-11T11:39:28.376Z,1.22
2022-12-11T11:40:28.947Z,1.25
2022-12-11T11:41:28.416Z,1.28
2022-12-11T11:42:28.432Z,1.34
2022-12-11T11:43:28.466Z,1.39
2022-12-11T11:44:28.361Z,1.43
2022-12-11T11:45:28.353Z,1.50
2022-12-11T11:46:28.398Z,1.51
2022-12-11T11:47:28.500Z,1.54
2022-12-11T11:48:28.763Z,1.55
2022-12-11T11:49:28.299Z,1.55
2022-12-11T11:50:28.369Z,1.58
2022-12-11T11:51:28.322Z,1.61
2022-12-11T11:52:28.284Z,1.65
2022-12-11T11:53:28.263Z,1.69
2022-12-11T11:54:28.300Z,1.72
2022-12-11T11:55:28.248Z,1.73
2022-12-11T11:56:28.282Z,1.78
2022-12-11T11:57:28.287Z,1.76
2022-12-11T11:58:28.287Z,1.78
2022-12-11T11:59:28.262Z,1.78
2022-12-11T12:00:33.333Z,1.80
2022-12-11T12:01:28.500Z,1.78
2022-12-11T12:02:28.379Z,1.75
2022-12-11T12:03:28.185Z,1.72
2022-12-11T12:04:28.169Z,1.68
2022-12-11T12:05:28.305Z,1.65
2022-12-11T12:06:28.345Z,1.62
2022-12-11T12:07:28.413Z,1.61
2022-12-11T12:08:28.205Z,1.60
2022-12-11T12:09:28.163Z,1.57
2022-12-11T12:10:28.210Z,1.55
2022-12-11T12:11:28.244Z,1.52
2022-12-11T12:12:33.655Z,1.51
2022-12-11T12:13:49.102Z,1.51
2022-12-11T12:14:51.569Z,1.50
2022-12-11T12:15:28.123Z,1.47
2022-12-11T12:16:58.255Z,1.43
2022-12-11T12:17:28.187Z,1.37
2022-12-11T12:18:28.297Z,1.39
2022-12-11T12:19:28.197Z,1.37
2022-12-11T12:20:28.032Z,1.37
2022-12-11T12:21:28.011Z,1.40
2022-12-11T12:22:28.041Z,1.39
2022-12-11T12:23:31.935Z,1.36
2022-12-11T12:24:28.362Z,1.37
2022-12-11T12:25:28.166Z,1.34
2022-12-11T12:26:27.960Z,1.37
2022-12-11T12:28:28.251Z,1.37
2022-12-11T12:29:28.054Z,1.39
2022-12-11T12:30:27.995Z,1.42
2022-12-11T12:31:28.121Z,1.43
2022-12-11T12:32:28.033Z,1.46
2022-12-11T12:33:28.073Z,1.50
2022-12-11T12:34:27.917Z,1.52
2022-12-11T12:35:27.896Z,1.54
2022-12-11T12:36:27.887Z,1.55
2022-12-11T12:37:28.006Z,1.55
2022-12-11T12:38:27.863Z,1.58
2022-12-11T12:39:27.843Z,1.60
2022-12-11T12:40:27.910Z,1.57
2022-12-11T12:41:27.819Z,1.58
2022-12-11T12:42:27.854Z,1.61
2022-12-11T12:43:27.896Z,1.62
2022-12-11T12:44:27.892Z,1.64
2022-12-11T12:45:27.962Z,1.62
2022-12-11T12:46:27.797Z,1.60
2022-12-11T12:47:27.882Z,1.61
2022-12-11T12:48:27.885Z,1.62
2022-12-11T12:49:27.863Z,1.64
2022-12-11T12:50:27.743Z,1.65
2022-12-11T12:51:27.793Z,1.69
2022-12-11T12:52:27.746Z,1.72
2022-12-11T12:53:27.826Z,1.72
2022-12-11T12:54:28.332Z,1.73
2022-12-11T12:55:27.684Z,1.73
2022-12-11T12:56:27.673Z,1.75
2022-12-11T12:57:27.803Z,1.76
2022-12-11T12:58:27.780Z,1.78
2022-12-11T12:59:27.829Z,1.73
2022-12-11T13:00:27.835Z,1.71
2022-12-11T13:01:28.133Z,1.71
2022-12-11T13:02:27.799Z,1.71
2022-12-11T13:03:27.615Z,1.71
2022-12-11T13:04:54.404Z,1.69
2022-12-11T13:05:27.645Z,1.69
2022-12-11T13:06:27.846Z,1.71
2022-12-11T13:07:27.811Z,1.71
2022-12-11T13:08:27.731Z,1.71
2022-12-11T13:09:27.855Z,1.69
2022-12-11T13:10:27.723Z,1.65
2022-12-11T13:11:27.688Z,1.68
2022-12-11T13:12:27.606Z,1.65
2022-12-11T13:13:27.978Z,1.65
2022-12-11T13:14:27.697Z,1.64
2022-12-11T13:15:27.507Z,1.68
2022-12-11T13:16:27.754Z,1.65
2022-12-11T13:17:27.525Z,1.65
2022-12-11T13:18:27.735Z,1.68
2022-12-11T13:19:27.462Z,1.65